createdAt,value
2018-02-16T00:01:03.444Z,22.93
2018-02-16T00:03:33.608Z,23.10
2018-02-16T00:06:03.989Z,22.43
2018-02-16T00:08:34.403Z,22.50
2018-02-16T00:11:04.984Z,23.53
2018-02-16T00:13:34.853Z,24.33
2018-02-16T00:16:05.559Z,24.07
2018-02-16T00:18:36.083Z,23.77
2018-02-16T00:21:06.380Z,23.10
2018-02-16T00:23:36.878Z,23.50
2018-02-16T00:26:07.203Z,22.93
2018-02-16T00:28:37.765Z,24.30
2018-02-16T00:31:08.230Z,23.33
2018-02-16T00:33:38.969Z,24.07
2018-02-16T00:36:09.460Z,24.57
2018-02-16T00:38:39.745Z,23.17
2018-02-16T00:41:11.251Z,21.67
2018-02-16T00:43:41.886Z,22.90
2018-02-16T00:46:12.143Z,24.43
2018-02-16T00:48:42.672Z,23.87
2018-02-16T00:51:13.236Z,24.60
2018-02-16T00:53:43.664Z,22.77
2018-02-16T00:56:13.893Z,24.57
2018-02-16T00:58:44.252Z,23.73
2018-02-16T01:01:14.405Z,24.10
2018-02-16T01:03:44.876Z,23.03
2018-02-16T01:06:15.103Z,23.07
2018-02-16T01:08:45.611Z,23.37
2018-02-16T01:11:16.058Z,22.40
2018-02-16T01:13:46.684Z,23.40
2018-02-16T01:16:16.978Z,22.80
2018-02-16T01:18:48.255Z,24.00
2018-02-16T01:21:18.399Z,23.40
2018-02-16T01:23:48.850Z,22.73
2018-02-16T01:26:18.980Z,22.20
2018-02-16T01:28:49.712Z,22.33
2018-02-16T01:31:20.273Z,23.10
2018-02-16T01:33:50.531Z,22.40
2018-02-16T01:36:20.959Z,22.83
2018-02-16T01:38:51.435Z,22.90
2018-02-16T01:41:21.840Z,22.37
2018-02-16T01:43:52.354Z,23.80
2018-02-16T01:46:23.034Z,23.03
2018-02-16T01:48:53.302Z,24.00
2018-02-16T01:51:23.437Z,23.00
2018-02-16T01:53:53.487Z,23.13
2018-02-16T01:56:23.325Z,23.23
2018-02-16T01:58:53.678Z,22.90
2018-02-16T02:01:24.020Z,23.80
2018-02-16T02:03:54.403Z,22.67
2018-02-16T02:06:24.569Z,24.60
2018-02-16T02:08:54.850Z,24.70
2018-02-16T02:11:25.586Z,25.10
2018-02-16T02:13:56.578Z,25.50
2018-02-16T02:16:27.065Z,24.47
2018-02-16T02:18:57.464Z,24.10
2018-02-16T02:21:27.784Z,25.63
2018-02-16T02:23:58.371Z,23.73
2018-02-16T02:26:29.007Z,23.63
2018-02-16T02:28:59.513Z,24.53
2018-02-16T02:31:29.988Z,24.77
2018-02-16T02:34:00.394Z,24.73
2018-02-16T02:36:30.941Z,24.93
2018-02-16T02:39:01.249Z,25.47
2018-02-16T02:41:31.769Z,24.43
2018-02-16T02:44:02.020Z,24.43
2018-02-16T02:46:32.326Z,24.27
2018-02-16T02:49:02.823Z,23.97
2018-02-16T02:51:33.092Z,24.27
2018-02-16T02:54:03.468Z,24.73
2018-02-16T02:56:33.581Z,23.53
2018-02-16T02:59:03.782Z,22.87
2018-02-16T03:01:34.334Z,23.03
2018-02-16T03:04:04.509Z,23.83
2018-02-16T03:06:34.888Z,23.53
2018-02-16T03:09:05.407Z,23.37
2018-02-16T03:11:35.465Z,23.13
2018-02-16T03:14:05.712Z,24.13
2018-02-16T03:16:35.830Z,23.67
2018-02-16T03:19:06.661Z,22.20
2018-02-16T03:21:37.073Z,23.73
2018-02-16T03:24:07.253Z,23.67
2018-02-16T03:26:37.343Z,24.47
2018-02-16T03:29:07.196Z,23.13
2018-02-16T03:31:37.389Z,25.23
2018-02-16T03:34:07.762Z,25.13
2018-02-16T03:36:38.255Z,25.13
2018-02-16T03:39:08.672Z,24.63
2018-02-16T03:41:39.990Z,25.40
2018-02-16T03:44:10.660Z,24.30
2018-02-16T03:46:41.193Z,24.50
2018-02-16T03:49:11.362Z,25.57
2018-02-16T03:51:41.951Z,27.00
2018-02-16T03:54:12.369Z,27.80
2018-02-16T03:56:42.855Z,28.37
2018-02-16T03:59:13.283Z,28.20
2018-02-16T04:01:43.635Z,29.13
2018-02-16T04:04:14.000Z,28.77
2018-02-16T04:06:44.254Z,29.07
2018-02-16T04:09:14.657Z,27.17
2018-02-16T04:11:45.318Z,28.53
2018-02-16T04:14:15.388Z,25.20
2018-02-16T04:16:46.157Z,28.73
2018-02-16T04:19:16.486Z,26.60
2018-02-16T04:21:46.884Z,25.33
2018-02-16T04:24:17.682Z,27.17
2018-02-16T04:26:48.249Z,26.90
2018-02-16T04:29:18.489Z,26.43
2018-02-16T04:31:48.971Z,27.37
2018-02-16T04:34:19.247Z,26.43
2018-02-16T04:36:49.614Z,27.00
2018-02-16T04:39:19.858Z,26.73
2018-02-16T04:41:50.210Z,25.80
2018-02-16T04:44:20.308Z,26.40
2018-02-16T04:46:50.668Z,26.93
2018-02-16T04:49:21.232Z,27.40
2018-02-16T04:51:51.673Z,26.67
2018-02-16T04:54:21.995Z,28.30
2018-02-16T04:56:52.455Z,27.90
2018-02-16T04:59:22.722Z,27.87
2018-02-16T05:01:53.220Z,27.53
2018-02-16T05:04:23.779Z,29.50
2018-02-16T05:06:54.099Z,30.10
2018-02-16T05:09:24.401Z,29.40
2018-02-16T05:11:54.758Z,29.50
2018-02-16T05:14:25.047Z,27.37
2018-02-16T05:16:55.503Z,27.77
2018-02-16T05:19:25.194Z,27.57
2018-02-16T05:21:54.906Z,28.37
2018-02-16T05:24:24.674Z,27.70
2018-02-16T05:26:54.449Z,27.67
2018-02-16T05:29:24.227Z,26.33
2018-02-16T05:31:53.948Z,26.90
2018-02-16T05:34:23.692Z,26.90
2018-02-16T05:36:53.488Z,27.60
2018-02-16T05:39:23.204Z,26.10
2018-02-16T05:41:52.982Z,26.17
2018-02-16T05:44:22.755Z,25.97
2018-02-16T05:46:52.528Z,26.33
2018-02-16T05:49:22.246Z,27.03
2018-02-16T05:51:51.997Z,24.73
2018-02-16T05:54:21.763Z,26.37
2018-02-16T05:56:51.558Z,25.50
2018-02-16T05:59:21.275Z,25.37
2018-02-16T06:01:51.048Z,26.20
2018-02-16T06:04:20.824Z,26.13
2018-02-16T06:06:50.613Z,26.93
2018-02-16T06:09:20.382Z,25.53
2018-02-16T06:11:50.282Z,25.97
2018-02-16T06:14:20.117Z,26.90
2018-02-16T06:16:49.872Z,27.57
2018-02-16T06:19:19.661Z,29.40
2018-02-16T06:21:49.462Z,28.20
2018-02-16T06:24:19.248Z,27.97
2018-02-16T06:26:49.048Z,28.70
2018-02-16T06:29:18.830Z,30.77
2018-02-16T06:31:48.706Z,29.63
2018-02-16T06:34:18.502Z,29.67
2018-02-16T06:36:48.345Z,30.33
2018-02-16T06:39:18.098Z,30.90
2018-02-16T06:41:47.850Z,33.23
2018-02-16T06:44:17.630Z,31.03
2018-02-16T06:46:47.412Z,32.70
2018-02-16T06:49:17.161Z,33.50
2018-02-16T06:51:47.026Z,33.20
2018-02-16T06:54:16.786Z,33.20
2018-02-16T06:56:46.562Z,30.17
2018-02-16T06:59:16.549Z,28.40
2018-02-16T07:01:46.291Z,28.27
2018-02-16T07:04:16.093Z,29.27
2018-02-16T07:06:45.971Z,28.83
2018-02-16T07:09:15.786Z,29.27
2018-02-16T07:11:45.591Z,30.70
2018-02-16T07:14:15.391Z,27.97
2018-02-16T07:16:45.241Z,27.90
2018-02-16T07:19:15.051Z,27.23
2018-02-16T07:21:44.850Z,26.80
2018-02-16T07:24:14.687Z,32.40
2018-02-16T07:26:44.537Z,31.20
2018-02-16T07:29:14.373Z,24.67
2018-02-16T07:31:44.103Z,23.47
2018-02-16T07:34:13.848Z,25.07
2018-02-16T07:36:43.724Z,23.33
2018-02-16T07:39:13.461Z,22.33
2018-02-16T07:41:43.215Z,22.93
2018-02-16T07:44:13.042Z,22.87
2018-02-16T07:46:42.893Z,22.47
2018-02-16T07:49:12.669Z,22.90
2018-02-16T07:51:42.426Z,22.37
2018-02-16T07:54:12.242Z,22.10
2018-02-16T07:56:41.974Z,20.43
2018-02-16T07:59:11.666Z,21.43
2018-02-16T08:01:41.474Z,20.63
2018-02-16T08:04:11.274Z,21.43
2018-02-16T08:06:41.078Z,21.07
2018-02-16T08:09:10.862Z,19.33
2018-02-16T08:11:40.652Z,19.83
2018-02-16T08:14:10.461Z,22.07
2018-02-16T08:16:40.292Z,20.70
2018-02-16T08:19:10.074Z,20.13
2018-02-16T08:21:39.768Z,21.90
2018-02-16T08:24:09.527Z,21.00
2018-02-16T08:26:39.376Z,20.40
2018-02-16T08:29:09.100Z,21.57
2018-02-16T08:31:38.881Z,21.70
2018-02-16T08:34:08.809Z,22.40
2018-02-16T08:36:38.632Z,22.30
2018-02-16T08:39:08.356Z,21.77
2018-02-16T08:41:38.063Z,22.70
2018-02-16T08:44:07.883Z,24.07
2018-02-16T08:46:37.630Z,24.83
2018-02-16T08:49:07.375Z,26.37
2018-02-16T08:51:37.181Z,25.13
2018-02-16T08:54:06.906Z,24.67
2018-02-16T08:56:36.738Z,24.90
2018-02-16T08:59:06.435Z,23.83
2018-02-16T09:01:36.163Z,23.03
2018-02-16T09:04:06.005Z,23.67
2018-02-16T09:06:35.742Z,22.00
2018-02-16T09:09:05.594Z,24.27
2018-02-16T09:11:35.403Z,23.67
2018-02-16T09:14:05.152Z,23.10
2018-02-16T09:16:35.005Z,22.40
2018-02-16T09:19:04.785Z,22.13
2018-02-16T09:21:34.530Z,23.70
2018-02-16T09:24:04.364Z,22.83
2018-02-16T09:26:34.128Z,21.87
2018-02-16T09:29:03.921Z,23.43
2018-02-16T09:31:33.664Z,22.60
2018-02-16T09:34:03.493Z,21.47
2018-02-16T09:36:34.141Z,22.97
2018-02-16T09:39:04.315Z,22.93
2018-02-16T09:41:34.074Z,22.60
2018-02-16T09:44:03.874Z,20.37
2018-02-16T09:46:33.692Z,19.47
2018-02-16T09:49:03.414Z,22.23
2018-02-16T09:51:33.173Z,19.93
2018-02-16T09:54:02.998Z,22.07
2018-02-16T09:56:32.838Z,18.57
2018-02-16T09:59:02.589Z,18.23
2018-02-16T10:01:32.301Z,17.17
2018-02-16T10:04:02.064Z,19.23
2018-02-16T10:06:31.839Z,19.90
2018-02-16T10:09:01.572Z,21.03
2018-02-16T10:11:31.346Z,20.30
2018-02-16T10:14:01.103Z,20.73
2018-02-16T10:16:30.878Z,19.90
2018-02-16T10:19:00.679Z,20.00
2018-02-16T10:21:30.404Z,19.27
2018-02-16T10:24:00.160Z,20.67
2018-02-16T10:26:29.954Z,16.03
2018-02-16T10:28:59.768Z,16.17
2018-02-16T10:31:29.525Z,14.87
2018-02-16T10:33:59.310Z,15.00
2018-02-16T10:36:29.065Z,14.23
2018-02-16T10:38:58.859Z,14.97
2018-02-16T10:41:28.563Z,13.97
2018-02-16T10:43:58.419Z,14.70
2018-02-16T10:46:28.184Z,15.97
2018-02-16T10:48:57.969Z,16.73
2018-02-16T10:51:27.739Z,17.37
2018-02-16T10:53:57.529Z,17.03
2018-02-16T10:56:27.391Z,15.93
2018-02-16T10:58:57.102Z,17.20
2018-02-16T11:01:26.964Z,17.17
2018-02-16T11:03:59.682Z,16.17
2018-02-16T11:06:47.096Z,16.07
2018-02-16T11:09:21.662Z,16.03
2018-02-16T11:11:51.381Z,15.07
2018-02-16T11:14:21.213Z,16.50
2018-02-16T11:16:51.012Z,16.73
2018-02-16T11:19:20.749Z,17.67
2018-02-16T11:21:50.500Z,18.57
2018-02-16T11:24:20.285Z,17.53
2018-02-16T11:26:50.104Z,17.50
2018-02-16T11:29:19.830Z,17.53
2018-02-16T11:31:49.578Z,18.43
2018-02-16T11:34:19.325Z,17.20
2018-02-16T11:36:49.089Z,16.53
2018-02-16T11:39:18.865Z,18.77
2018-02-16T11:41:48.559Z,17.87
2018-02-16T11:44:18.326Z,16.60
2018-02-16T11:46:48.146Z,19.63
2018-02-16T11:49:17.892Z,18.07
2018-02-16T11:51:47.627Z,18.90
2018-02-16T11:54:17.373Z,17.80
2018-02-16T11:56:47.174Z,15.53
2018-02-16T11:59:16.902Z,15.70
2018-02-16T12:01:46.649Z,16.10
2018-02-16T12:04:16.491Z,16.97
2018-02-16T12:06:46.268Z,17.17
2018-02-16T12:09:16.040Z,17.03
2018-02-16T12:11:45.757Z,16.37
2018-02-16T12:14:16.452Z,15.47
2018-02-16T12:16:46.214Z,14.87
2018-02-16T12:19:15.971Z,15.80
2018-02-16T12:21:45.702Z,15.73
2018-02-16T12:24:15.494Z,16.23
2018-02-16T12:26:45.331Z,14.83
2018-02-16T12:29:15.024Z,12.93
2018-02-16T12:31:44.793Z,12.30
2018-02-16T12:34:14.616Z,12.50
2018-02-16T12:36:44.389Z,12.53
2018-02-16T12:39:14.188Z,14.40
2018-02-16T12:41:43.915Z,12.57
2018-02-16T12:44:13.721Z,13.10
2018-02-16T12:46:43.540Z,12.30
2018-02-16T12:49:13.275Z,13.27
2018-02-16T12:51:43.055Z,12.53
2018-02-16T12:54:12.827Z,13.30
2018-02-16T12:56:42.586Z,13.33
2018-02-16T12:59:12.379Z,13.23
2018-02-16T13:01:42.185Z,14.43
2018-02-16T13:04:12.061Z,14.80
2018-02-16T13:06:41.886Z,13.83
2018-02-16T13:09:11.572Z,14.40
2018-02-16T13:11:41.330Z,14.67
2018-02-16T13:14:11.315Z,14.67
2018-02-16T13:16:41.405Z,12.70
2018-02-16T13:19:10.948Z,14.00
2018-02-16T13:21:40.726Z,14.57
2018-02-16T13:24:10.484Z,14.40
2018-02-16T13:26:40.291Z,13.87
2018-02-16T13:29:10.057Z,14.77
2018-02-16T13:31:39.785Z,16.10
2018-02-16T13:34:09.562Z,15.27
2018-02-16T13:36:39.350Z,15.93
2018-02-16T13:39:09.062Z,16.20
2018-02-16T13:41:38.845Z,15.93
2018-02-16T13:44:08.651Z,14.67
2018-02-16T13:46:38.464Z,14.53
2018-02-16T13:49:08.168Z,15.13
2018-02-16T13:51:37.898Z,15.57
2018-02-16T13:54:07.751Z,16.03
2018-02-16T13:56:37.514Z,15.37
2018-02-16T13:59:07.234Z,16.47
2018-02-16T14:01:37.033Z,16.20
2018-02-16T14:04:06.836Z,16.50
2018-02-16T14:06:36.657Z,16.27
2018-02-16T14:09:06.424Z,15.17
2018-02-16T14:11:36.119Z,17.20
2018-02-16T14:14:05.895Z,17.50
2018-02-16T14:16:35.741Z,18.07
2018-02-16T14:19:05.511Z,14.43
2018-02-16T14:21:35.285Z,15.90
2018-02-16T14:24:05.076Z,18.90
2018-02-16T14:26:34.928Z,18.43
2018-02-16T14:29:04.668Z,16.80
2018-02-16T14:31:34.429Z,16.73
2018-02-16T14:34:04.178Z,18.43
2018-02-16T14:36:33.997Z,18.33
2018-02-16T14:39:03.853Z,19.03
2018-02-16T14:41:33.574Z,18.70
2018-02-16T14:44:03.337Z,20.23
2018-02-16T14:46:33.077Z,19.73
2018-02-16T14:49:02.809Z,17.30
2018-02-16T14:51:32.664Z,18.40
2018-02-16T14:54:02.477Z,19.97
2018-02-16T14:56:32.268Z,18.27
2018-02-16T14:59:02.028Z,18.03
2018-02-16T15:01:31.785Z,18.07
2018-02-16T15:04:01.592Z,17.97
2018-02-16T15:06:31.376Z,16.67
2018-02-16T15:09:01.108Z,19.83
2018-02-16T15:11:30.830Z,18.37
2018-02-16T15:14:00.574Z,17.83
2018-02-16T15:16:30.432Z,18.57
2018-02-16T15:19:00.158Z,18.87
2018-02-16T15:21:29.874Z,18.00
2018-02-16T15:23:59.657Z,19.70
2018-02-16T15:26:29.423Z,20.50
2018-02-16T15:28:59.189Z,19.83
2018-02-16T15:31:28.902Z,21.73
2018-02-16T15:33:58.709Z,20.43
2018-02-16T15:36:28.524Z,19.93
2018-02-16T15:38:58.273Z,19.37
2018-02-16T15:41:28.000Z,21.33
2018-02-16T15:43:57.880Z,20.03
2018-02-16T15:46:27.710Z,20.90
2018-02-16T15:48:57.481Z,20.80
2018-02-16T15:51:27.218Z,21.10
2018-02-16T15:53:56.967Z,19.73
2018-02-16T15:56:26.846Z,21.37
2018-02-16T15:58:56.569Z,20.97
2018-02-16T16:01:26.280Z,19.87
2018-02-16T16:03:55.988Z,20.53
2018-02-16T16:06:25.754Z,20.37
2018-02-16T16:08:55.570Z,20.43
2018-02-16T16:11:25.319Z,20.67
2018-02-16T16:13:55.126Z,21.07
2018-02-16T16:16:24.942Z,20.80
2018-02-16T16:18:54.697Z,20.33
2018-02-16T16:21:24.400Z,20.23
2018-02-16T16:23:54.145Z,21.00
2018-02-16T16:26:23.902Z,21.10
2018-02-16T16:28:53.597Z,20.63
2018-02-16T16:31:23.316Z,21.73
2018-02-16T16:33:53.094Z,21.27
2018-02-16T16:36:22.838Z,21.73
2018-02-16T16:38:52.572Z,20.97
2018-02-16T16:41:22.301Z,20.00
2018-02-16T16:43:52.062Z,21.17
2018-02-16T16:46:21.749Z,20.17
2018-02-16T16:48:51.480Z,19.20
2018-02-16T16:51:21.200Z,20.77
2018-02-16T16:53:50.958Z,19.73
2018-02-16T16:56:20.647Z,20.30
2018-02-16T16:58:50.373Z,20.37
2018-02-16T17:01:20.117Z,21.27
2018-02-16T17:03:49.906Z,20.03
2018-02-16T17:06:19.703Z,20.43
2018-02-16T17:08:49.422Z,19.77
2018-02-16T17:11:19.156Z,19.27
2018-02-16T17:13:48.950Z,20.87
2018-02-16T17:16:18.886Z,19.87
2018-02-16T17:18:48.626Z,19.63
2018-02-16T17:21:18.387Z,19.03
2018-02-16T17:23:48.074Z,19.57
2018-02-16T17:26:17.897Z,20.23
2018-02-16T17:28:47.620Z,20.77
2018-02-16T17:31:17.377Z,20.07
2018-02-16T17:33:47.196Z,21.17
2018-02-16T17:36:16.981Z,19.63
2018-02-16T17:38:46.788Z,21.27
2018-02-16T17:41:16.500Z,21.43
2018-02-16T17:43:46.253Z,20.80
2018-02-16T17:46:16.065Z,20.27
2018-02-16T17:48:45.768Z,21.43
2018-02-16T17:51:15.493Z,19.53
2018-02-16T17:53:45.272Z,21.17
2018-02-16T17:56:15.034Z,20.77
2018-02-16T17:58:44.792Z,20.23
2018-02-16T18:01:14.556Z,21.90
2018-02-16T18:03:44.375Z,20.70
2018-02-16T18:06:14.219Z,21.53
2018-02-16T18:08:43.950Z,19.97
2018-02-16T18:11:13.691Z,20.70
2018-02-16T18:13:43.479Z,19.83
2018-02-16T18:16:13.272Z,21.03
2018-02-16T18:18:43.034Z,22.13
2018-02-16T18:21:12.757Z,21.10
2018-02-16T18:23:42.507Z,22.07
2018-02-16T18:26:12.310Z,21.10
2018-02-16T18:28:42.043Z,20.47
2018-02-16T18:31:11.761Z,20.70
2018-02-16T18:33:41.557Z,18.73
2018-02-16T18:36:11.352Z,19.83
2018-02-16T18:38:41.122Z,18.83
2018-02-16T18:41:11.067Z,18.13
2018-02-16T18:43:40.886Z,18.73
2018-02-16T18:46:10.731Z,19.03
2018-02-16T18:48:40.492Z,21.27
2018-02-16T18:51:10.538Z,21.87
2018-02-16T18:53:40.267Z,25.17
2018-02-16T18:56:10.179Z,27.83
2018-02-16T18:58:39.989Z,30.27
2018-02-16T19:01:09.718Z,32.83
2018-02-16T19:03:39.592Z,35.97
2018-02-16T19:06:09.372Z,39.23
2018-02-16T19:08:39.097Z,35.93
2018-02-16T19:11:08.868Z,38.40
2018-02-16T19:13:38.769Z,38.27
2018-02-16T19:16:08.619Z,38.33
2018-02-16T19:18:38.365Z,36.10
2018-02-16T19:21:08.171Z,37.30
2018-02-16T19:23:37.947Z,36.83
2018-02-16T19:26:07.736Z,35.17
2018-02-16T19:28:37.467Z,37.07
2018-02-16T19:31:07.190Z,36.40
2018-02-16T19:33:36.966Z,32.83
2018-02-16T19:36:06.736Z,29.80
2018-02-16T19:38:36.479Z,26.90
2018-02-16T19:41:06.270Z,26.50
2018-02-16T19:43:35.996Z,25.13
2018-02-16T19:46:05.729Z,23.70
2018-02-16T19:48:35.558Z,23.67
2018-02-16T19:51:05.302Z,21.80
2018-02-16T19:53:35.064Z,23.37
2018-02-16T19:56:04.831Z,21.90
2018-02-16T19:58:34.570Z,23.37
2018-02-16T20:01:04.329Z,21.47
2018-02-16T20:03:34.098Z,21.63
2018-02-16T20:06:03.922Z,21.77
2018-02-16T20:08:33.639Z,22.37
2018-02-16T20:11:03.352Z,22.30
2018-02-16T20:13:33.130Z,22.77
2018-02-16T20:16:02.916Z,20.33
2018-02-16T20:18:32.739Z,20.73
2018-02-16T20:21:02.554Z,22.03
2018-02-16T20:23:32.276Z,20.60
2018-02-16T20:26:02.210Z,21.57
2018-02-16T20:28:33.178Z,22.47
2018-02-16T20:31:03.132Z,21.40
2018-02-16T20:33:34.134Z,21.77
2018-02-16T20:36:05.055Z,22.60
2018-02-16T20:38:36.211Z,21.63
2018-02-16T20:41:07.289Z,21.33
2018-02-16T20:43:38.130Z,20.50
2018-02-16T20:46:08.974Z,22.40
2018-02-16T20:48:39.905Z,20.10
2018-02-16T20:51:10.714Z,22.03
2018-02-16T20:53:41.472Z,21.57
2018-02-16T20:56:12.531Z,21.73
2018-02-16T20:58:42.977Z,23.33
2018-02-16T21:01:13.705Z,21.10
2018-02-16T21:03:44.100Z,20.40
2018-02-16T21:06:14.594Z,21.60
2018-02-16T21:08:44.948Z,21.27
2018-02-16T21:11:15.150Z,24.63
2018-02-16T21:13:45.735Z,25.93
2018-02-16T21:16:15.643Z,22.27
2018-02-16T21:18:45.832Z,20.17
2018-02-16T21:21:16.662Z,21.50
2018-02-16T21:23:47.352Z,21.63
2018-02-16T21:26:17.639Z,23.97
2018-02-16T21:28:47.695Z,24.53
2018-02-16T21:31:17.590Z,24.47
2018-02-16T21:33:48.895Z,22.93
2018-02-16T21:36:19.537Z,27.07
2018-02-16T21:38:49.973Z,24.80
2018-02-16T21:41:20.400Z,23.93
2018-02-16T21:43:50.965Z,28.03
2018-02-16T21:46:21.663Z,28.50
2018-02-16T21:48:51.824Z,27.17
2018-02-16T21:51:21.760Z,28.13
2018-02-16T21:53:52.196Z,27.80
2018-02-16T21:56:22.641Z,29.73
2018-02-16T21:58:52.665Z,29.93
2018-02-16T22:01:22.805Z,27.67
2018-02-16T22:03:53.304Z,28.07
2018-02-16T22:06:23.741Z,33.20
2018-02-16T22:08:54.220Z,36.67
2018-02-16T22:11:24.620Z,36.77
2018-02-16T22:13:55.138Z,40.90
2018-02-16T22:16:25.564Z,38.20
2018-02-16T22:18:55.943Z,34.67
2018-02-16T22:21:26.532Z,36.83
2018-02-16T22:23:56.882Z,37.00
2018-02-16T22:26:28.173Z,37.17
2018-02-16T22:28:58.196Z,35.57
2018-02-16T22:31:28.038Z,35.00
2018-02-16T22:33:58.472Z,39.30
2018-02-16T22:36:28.931Z,36.33
2018-02-16T22:38:59.513Z,36.07
2018-02-16T22:41:30.085Z,33.73
2018-02-16T22:43:59.897Z,34.67
2018-02-16T22:46:30.522Z,32.70
2018-02-16T22:49:00.988Z,31.67
2018-02-16T22:51:31.305Z,32.70
2018-02-16T22:54:01.384Z,33.20
2018-02-16T22:56:34.705Z,30.97
2018-02-16T22:59:05.141Z,33.23
2018-02-16T23:01:35.331Z,31.57
2018-02-16T23:04:05.684Z,32.13
2018-02-16T23:06:36.385Z,33.43
2018-02-16T23:09:06.960Z,34.43
2018-02-16T23:11:37.228Z,32.97
2018-02-16T23:14:07.692Z,31.93
2018-02-16T23:16:37.483Z,34.27
2018-02-16T23:19:08.030Z,33.33
2018-02-16T23:21:37.845Z,32.70
2018-02-16T23:24:07.602Z,33.13
2018-02-16T23:26:38.589Z,32.17
2018-02-16T23:29:08.958Z,33.50
2018-02-16T23:31:39.258Z,30.53
2018-02-16T23:34:08.987Z,31.20
2018-02-16T23:36:39.435Z,30.87
2018-02-16T23:39:09.811Z,29.73
2018-02-16T23:41:40.098Z,31.20
2018-02-16T23:44:10.541Z,32.37
2018-02-16T23:46:41.287Z,31.40
2018-02-16T23:49:11.601Z,29.43
2018-02-16T23:51:42.000Z,30.20
2018-02-16T23:54:12.199Z,30.53
2018-02-16T23:56:42.915Z,29.50
2018-02-16T23:59:13.403Z,31.07
